sensor_id;sensor_type;location;lat;lon;timestamp;pressure;altitude;pressure_sealevel;temperature;humidity
21102;BME280;10709;49.006;12.100;2024-01-16T00:01:56;48844.00;;;-146.00;86.35
21102;BME280;10709;49.006;12.100;2024-01-16T00:04:22;48832.22;;;-146.00;86.28
21102;BME280;10709;49.006;12.100;2024-01-16T00:06:49;48845.94;;;-146.00;85.56
21102;BME280;10709;49.006;12.100;2024-01-16T00:09:16;48859.66;;;-146.00;85.55
21102;BME280;10709;49.006;12.100;2024-01-16T00:11:43;48832.22;;;-146.00;85.03
21102;BME280;10709;49.006;12.100;2024-01-16T00:14:10;48796.97;;;-146.00;84.92
21102;BME280;10709;49.006;12.100;2024-01-16T00:16:44;48836.16;;;-146.00;84.95
21102;BME280;10709;49.006;12.100;2024-01-16T00:19:11;48793.06;;;-146.00;84.38
21102;BME280;10709;49.006;12.100;2024-01-16T00:21:40;48828.31;;;-146.00;85.05
21102;BME280;10709;49.006;12.100;2024-01-16T00:24:07;48796.97;;;-146.00;84.79
21102;BME280;10709;49.006;12.100;2024-01-16T00:26:34;48836.16;;;-146.00;84.84
21102;BME280;10709;49.006;12.100;2024-01-16T00:29:01;48810.69;;;-146.00;84.75
21102;BME280;10709;49.006;12.100;2024-01-16T00:31:28;48806.75;;;-146.00;84.53
21102;BME280;10709;49.006;12.100;2024-01-16T00:33:55;48822.44;;;-146.00;84.23
21102;BME280;10709;49.006;12.100;2024-01-16T00:36:21;48804.81;;;-146.00;83.93
21102;BME280;10709;49.006;12.100;2024-01-16T00:38:49;48769.53;;;-146.00;82.60
21102;BME280;10709;49.006;12.100;2024-01-16T00:41:16;48781.31;;;-146.00;82.49
21102;BME280;10709;49.006;12.100;2024-01-16T00:43:43;48781.31;;;-146.00;82.15
21102;BME280;10709;49.006;12.100;2024-01-16T00:46:10;48777.38;;;-146.00;81.54
21102;BME280;10709;49.006;12.100;2024-01-16T00:48:37;48789.13;;;-146.00;81.73
21102;BME280;10709;49.006;12.100;2024-01-16T00:51:07;48777.38;;;-146.00;82.52
21102;BME280;10709;49.006;12.100;2024-01-16T00:53:42;48777.38;;;-146.00;82.06
21102;BME280;10709;49.006;12.100;2024-01-16T00:56:10;48765.63;;;-146.00;82.45
21102;BME280;10709;49.006;12.100;2024-01-16T00:58:37;48789.13;;;-146.00;82.33
21102;BME280;10709;49.006;12.100;2024-01-16T01:01:04;48777.38;;;-146.00;81.60
21102;BME280;10709;49.006;12.100;2024-01-16T01:03:31;48777.38;;;-146.00;82.00
21102;BME280;10709;49.006;12.100;2024-01-16T01:05:59;48765.63;;;-146.00;81.95
21102;BME280;10709;49.006;12.100;2024-01-16T01:08:27;48773.47;;;-146.00;81.71
21102;BME280;10709;49.006;12.100;2024-01-16T01:10:53;48765.63;;;-146.00;81.65
21102;BME280;10709;49.006;12.100;2024-01-16T01:13:20;48777.38;;;-146.00;81.84
21102;BME280;10709;49.006;12.100;2024-01-16T01:15:46;48763.66;;;-146.00;81.27
21102;BME280;10709;49.006;12.100;2024-01-16T01:18:15;48761.72;;;-146.00;80.67
21102;BME280;10709;49.006;12.100;2024-01-16T01:20:42;48765.63;;;-146.00;81.28
21102;BME280;10709;49.006;12.100;2024-01-16T01:23:09;48749.94;;;-146.00;81.85
21102;BME280;10709;49.006;12.100;2024-01-16T01:25:36;48769.53;;;-146.00;81.89
21102;BME280;10709;49.006;12.100;2024-01-16T01:28:03;48753.88;;;-146.00;81.95
21102;BME280;10709;49.006;12.100;2024-01-16T01:30:30;48753.88;;;-146.00;81.36
21102;BME280;10709;49.006;12.100;2024-01-16T01:32:56;48769.53;;;-146.00;81.49
21102;BME280;10709;49.006;12.100;2024-01-16T01:35:23;48785.22;;;-146.00;81.29
21102;BME280;10709;49.006;12.100;2024-01-16T01:37:50;48785.22;;;-146.00;80.84
21102;BME280;10709;49.006;12.100;2024-01-16T01:40:17;48777.38;;;-146.00;81.15
21102;BME280;10709;49.006;12.100;2024-01-16T01:42:44;48757.78;;;-146.00;81.08
21102;BME280;10709;49.006;12.100;2024-01-16T01:45:11;48781.31;;;-146.00;81.34
21102;BME280;10709;49.006;12.100;2024-01-16T01:47:42;48773.47;;;-146.00;81.67
21102;BME280;10709;49.006;12.100;2024-01-16T01:50:09;48767.59;;;-146.00;82.19
21102;BME280;10709;49.006;12.100;2024-01-16T01:52:38;48734.28;;;-146.00;81.43
21102;BME280;10709;49.006;12.100;2024-01-16T01:55:12;48749.94;;;-146.00;80.94
21102;BME280;10709;49.006;12.100;2024-01-16T01:57:40;48746.03;;;-146.00;81.19
21102;BME280;10709;49.006;12.100;2024-01-16T02:00:10;48746.03;;;-146.00;81.24
21102;BME280;10709;49.006;12.100;2024-01-16T02:02:41;48757.78;;;-146.00;81.13
21102;BME280;10709;49.006;12.100;2024-01-16T02:05:08;48765.63;;;-146.00;81.06
21102;BME280;10709;49.006;12.100;2024-01-16T02:07:35;48761.72;;;-146.00;81.15
21102;BME280;10709;49.006;12.100;2024-01-16T02:10:03;48757.78;;;-146.00;82.48
21102;BME280;10709;49.006;12.100;2024-01-16T02:12:30;48769.53;;;-146.00;81.93
21102;BME280;10709;49.006;12.100;2024-01-16T02:14:56;48787.19;;;-146.00;81.70
21102;BME280;10709;49.006;12.100;2024-01-16T02:17:23;48761.72;;;-146.00;81.61
21102;BME280;10709;49.006;12.100;2024-01-16T02:19:50;48781.31;;;-146.00;82.43
21102;BME280;10709;49.006;12.100;2024-01-16T02:22:25;48753.88;;;-146.00;81.81
21102;BME280;10709;49.006;12.100;2024-01-16T02:24:53;48765.63;;;-146.00;81.87
21102;BME280;10709;49.006;12.100;2024-01-16T02:27:20;48757.78;;;-146.00;81.84
21102;BME280;10709;49.006;12.100;2024-01-16T02:29:47;48765.63;;;-146.00;81.84
21102;BME280;10709;49.006;12.100;2024-01-16T02:32:16;48757.78;;;-146.00;81.44
21102;BME280;10709;49.006;12.100;2024-01-16T02:34:42;48746.03;;;-146.00;81.49
21102;BME280;10709;49.006;12.100;2024-01-16T02:37:10;48751.91;;;-146.00;81.46
21102;BME280;10709;49.006;12.100;2024-01-16T02:39:37;48751.91;;;-146.00;81.73
21102;BME280;10709;49.006;12.100;2024-01-16T02:42:04;48753.88;;;-146.00;81.63
21102;BME280;10709;49.006;12.100;2024-01-16T02:44:30;48753.88;;;-146.00;81.77
21102;BME280;10709;49.006;12.100;2024-01-16T02:46:57;48777.38;;;-146.00;81.93
21102;BME280;10709;49.006;12.100;2024-01-16T02:49:24;48749.94;;;-146.00;81.70
21102;BME280;10709;49.006;12.100;2024-01-16T02:51:52;48765.63;;;-146.00;81.52
21102;BME280;10709;49.006;12.100;2024-01-16T02:54:19;48773.47;;;-146.00;82.17
21102;BME280;10709;49.006;12.100;2024-01-16T02:56:46;48730.38;;;-146.00;81.64
21102;BME280;10709;49.006;12.100;2024-01-16T02:59:13;48777.38;;;-146.00;81.89
21102;BME280;10709;49.006;12.100;2024-01-16T03:01:40;48761.72;;;-146.00;82.39
21102;BME280;10709;49.006;12.100;2024-01-16T03:04:07;48761.72;;;-146.00;81.93
21102;BME280;10709;49.006;12.100;2024-01-16T03:06:33;48751.91;;;-146.00;81.90
21102;BME280;10709;49.006;12.100;2024-01-16T03:09:01;48793.06;;;-146.00;81.88
21102;BME280;10709;49.006;12.100;2024-01-16T03:11:27;48769.53;;;-146.00;81.51
21102;BME280;10709;49.006;12.100;2024-01-16T03:13:58;48749.94;;;-146.00;81.88
21102;BME280;10709;49.006;12.100;2024-01-16T03:16:25;48777.38;;;-146.00;82.54
21102;BME280;10709;49.006;12.100;2024-01-16T03:18:52;48742.13;;;-146.00;82.49
21102;BME280;10709;49.006;12.100;2024-01-16T03:21:18;48753.88;;;-146.00;82.09
21102;BME280;10709;49.006;12.100;2024-01-16T03:23:45;48744.06;;;-146.00;82.34
21102;BME280;10709;49.006;12.100;2024-01-16T03:26:15;48765.63;;;-146.00;82.79
21102;BME280;10709;49.006;12.100;2024-01-16T03:28:42;48781.31;;;-146.00;82.21
21102;BME280;10709;49.006;12.100;2024-01-16T03:31:12;48742.13;;;-146.00;81.72
21102;BME280;10709;49.006;12.100;2024-01-16T03:33:40;48753.88;;;-146.00;81.74
21102;BME280;10709;49.006;12.100;2024-01-16T03:36:09;48789.13;;;-146.00;82.30
21102;BME280;10709;49.006;12.100;2024-01-16T03:38:36;48738.19;;;-146.00;81.85
21102;BME280;10709;49.006;12.100;2024-01-16T03:41:06;48742.13;;;-146.00;82.34
21102;BME280;10709;49.006;12.100;2024-01-16T03:43:34;48777.38;;;-146.00;81.80
21102;BME280;10709;49.006;12.100;2024-01-16T03:46:01;48769.53;;;-146.00;82.29
21102;BME280;10709;49.006;12.100;2024-01-16T03:48:31;48765.63;;;-146.00;82.32
21102;BME280;10709;49.006;12.100;2024-01-16T03:50:59;48753.88;;;-146.00;82.71
21102;BME280;10709;49.006;12.100;2024-01-16T03:53:25;48765.63;;;-146.00;82.20
21102;BME280;10709;49.006;12.100;2024-01-16T03:55:52;48769.53;;;-146.00;82.30
21102;BME280;10709;49.006;12.100;2024-01-16T03:58:18;48749.94;;;-146.00;81.84
21102;BME280;10709;49.006;12.100;2024-01-16T04:00:45;48793.06;;;-146.00;81.93
21102;BME280;10709;49.006;12.100;2024-01-16T04:03:12;48734.28;;;-146.00;81.87
21102;BME280;10709;49.006;12.100;2024-01-16T04:05:39;48769.53;;;-146.00;81.49
21102;BME280;10709;49.006;12.100;2024-01-16T04:08:08;48769.53;;;-146.00;81.55
21102;BME280;10709;49.006;12.100;2024-01-16T04:10:35;48757.78;;;-146.00;81.63
21102;BME280;10709;49.006;12.100;2024-01-16T04:13:03;48742.13;;;-146.00;81.36
21102;BME280;10709;49.006;12.100;2024-01-16T04:15:31;48746.03;;;-146.00;81.48
21102;BME280;10709;49.006;12.100;2024-01-16T04:17:59;48738.19;;;-146.00;80.87
21102;BME280;10709;49.006;12.100;2024-01-16T04:20:26;48740.16;;;-146.00;81.17
21102;BME280;10709;49.006;12.100;2024-01-16T04:22:52;48734.28;;;-146.00;80.50
21102;BME280;10709;49.006;12.100;2024-01-16T04:25:19;48753.88;;;-146.00;81.55
21102;BME280;10709;49.006;12.100;2024-01-16T04:27:45;48724.50;;;-146.00;81.66
21102;BME280;10709;49.006;12.100;2024-01-16T04:30:12;48757.78;;;-146.00;81.44
21102;BME280;10709;49.006;12.100;2024-01-16T04:32:39;48746.03;;;-146.00;81.03
21102;BME280;10709;49.006;12.100;2024-01-16T04:35:07;48753.88;;;-146.00;81.11
21102;BME280;10709;49.006;12.100;2024-01-16T04:37:34;48746.03;;;-146.00;81.07
21102;BME280;10709;49.006;12.100;2024-01-16T04:40:01;48753.88;;;-146.00;81.28
21102;BME280;10709;49.006;12.100;2024-01-16T04:42:28;48769.53;;;-146.00;80.95
21102;BME280;10709;49.006;12.100;2024-01-16T04:44:56;48730.38;;;-146.00;80.88
21102;BME280;10709;49.006;12.100;2024-01-16T04:47:23;48722.53;;;-146.00;80.80
21102;BME280;10709;49.006;12.100;2024-01-16T04:49:49;48765.63;;;-146.00;80.77
21102;BME280;10709;49.006;12.100;2024-01-16T04:52:16;48746.03;;;-146.00;81.51
21102;BME280;10709;49.006;12.100;2024-01-16T04:54:42;48761.72;;;-146.00;80.88
21102;BME280;10709;49.006;12.100;2024-01-16T04:57:14;48734.28;;;-146.00;81.08
21102;BME280;10709;49.006;12.100;2024-01-16T04:59:41;48736.25;;;-146.00;80.87
21102;BME280;10709;49.006;12.100;2024-01-16T05:02:08;48738.19;;;-146.00;81.49
21102;BME280;10709;49.006;12.100;2024-01-16T05:04:37;48765.63;;;-146.00;80.84
21102;BME280;10709;49.006;12.100;2024-01-16T05:07:04;48738.19;;;-146.00;80.34
21102;BME280;10709;49.006;12.100;2024-01-16T05:09:31;48730.38;;;-146.00;80.33
21102;BME280;10709;49.006;12.100;2024-01-16T05:11:57;48753.88;;;-146.00;80.19
21102;BME280;10709;49.006;12.100;2024-01-16T05:14:24;48734.28;;;-146.00;80.21
21102;BME280;10709;49.006;12.100;2024-01-16T05:16:52;48746.03;;;-146.00;80.97
21102;BME280;10709;49.006;12.100;2024-01-16T05:19:19;48738.19;;;-146.00;80.34
21102;BME280;10709;49.006;12.100;2024-01-16T05:21:46;48722.53;;;-146.00;79.93
21102;BME280;10709;49.006;12.100;2024-01-16T05:24:13;48755.84;;;-146.00;80.53
21102;BME280;10709;49.006;12.100;2024-01-16T05:26:39;48726.44;;;-146.00;79.51
21102;BME280;10709;49.006;12.100;2024-01-16T05:29:08;48746.03;;;-146.00;79.77
21102;BME280;10709;49.006;12.100;2024-01-16T05:31:40;48710.78;;;-146.00;79.99
21102;BME280;10709;49.006;12.100;2024-01-16T05:34:08;48746.03;;;-146.00;79.29
21102;BME280;10709;49.006;12.100;2024-01-16T05:36:36;48736.25;;;-146.00;79.28
21102;BME280;10709;49.006;12.100;2024-01-16T05:39:02;48728.41;;;-146.00;79.53
21102;BME280;10709;49.006;12.100;2024-01-16T05:41:33;48726.44;;;-146.00;79.27
21102;BME280;10709;49.006;12.100;2024-01-16T05:44:01;48732.31;;;-146.00;79.20
21102;BME280;10709;49.006;12.100;2024-01-16T05:46:32;48704.91;;;-146.00;79.38
21102;BME280;10709;49.006;12.100;2024-01-16T05:49:00;48720.56;;;-146.00;78.91
21102;BME280;10709;49.006;12.100;2024-01-16T05:51:27;48742.13;;;-146.00;78.42
21102;BME280;10709;49.006;12.100;2024-01-16T05:53:54;48718.59;;;-146.00;78.08
21102;BME280;10709;49.006;12.100;2024-01-16T05:56:21;48728.41;;;-146.00;77.73
21102;BME280;10709;49.006;12.100;2024-01-16T05:58:48;48706.84;;;-146.00;78.17
21102;BME280;10709;49.006;12.100;2024-01-16T06:01:17;48714.69;;;-146.00;77.68
21102;BME280;10709;49.006;12.100;2024-01-16T06:03:44;48742.13;;;-146.00;78.07
21102;BME280;10709;49.006;12.100;2024-01-16T06:06:13;48714.69;;;-146.00;78.42
21102;BME280;10709;49.006;12.100;2024-01-16T06:08:39;48695.09;;;-146.00;77.82
21102;BME280;10709;49.006;12.100;2024-01-16T06:11:06;48710.78;;;-146.00;78.47
21102;BME280;10709;49.006;12.100;2024-01-16T06:13:33;48722.53;;;-146.00;78.67
21102;BME280;10709;49.006;12.100;2024-01-16T06:15:59;48718.59;;;-146.00;78.29
21102;BME280;10709;49.006;12.100;2024-01-16T06:18:27;48716.66;;;-146.00;78.01
21102;BME280;10709;49.006;12.100;2024-01-16T06:20:54;48718.59;;;-146.00;77.53
21102;BME280;10709;49.006;12.100;2024-01-16T06:23:21;48722.53;;;-146.00;77.68
21102;BME280;10709;49.006;12.100;2024-01-16T06:25:47;48718.59;;;-146.00;77.66
21102;BME280;10709;49.006;12.100;2024-01-16T06:28:14;48718.59;;;-146.00;77.16
21102;BME280;10709;49.006;12.100;2024-01-16T06:30:41;48685.31;;;-146.00;77.58
21102;BME280;10709;49.006;12.100;2024-01-16T06:33:08;48695.09;;;-146.00;76.85
21102;BME280;10709;49.006;12.100;2024-01-16T06:35:34;48710.78;;;-146.00;77.18
21102;BME280;10709;49.006;12.100;2024-01-16T06:38:06;48700.97;;;-146.00;77.17
21102;BME280;10709;49.006;12.100;2024-01-16T06:40:33;48710.78;;;-146.00;76.57
21102;BME280;10709;49.006;12.100;2024-01-16T06:43:00;48681.41;;;-146.00;75.97
21102;BME280;10709;49.006;12.100;2024-01-16T06:45:29;48730.38;;;-146.00;76.87
21102;BME280;10709;49.006;12.100;2024-01-16T06:47:58;48714.69;;;-146.00;76.79
21102;BME280;10709;49.006;12.100;2024-01-16T06:50:27;48702.94;;;-146.00;77.09
21102;BME280;10709;49.006;12.100;2024-01-16T06:52:53;48702.94;;;-146.00;76.11
21102;BME280;10709;49.006;12.100;2024-01-16T06:55:20;48710.78;;;-146.00;76.86
21102;BME280;10709;49.006;12.100;2024-01-16T06:57:46;48710.78;;;-146.00;76.27
21102;BME280;10709;49.006;12.100;2024-01-16T07:00:14;48689.22;;;-146.00;76.07
21102;BME280;10709;49.006;12.100;2024-01-16T07:02:42;48722.53;;;-146.00;76.18
21102;BME280;10709;49.006;12.100;2024-01-16T07:05:11;48714.69;;;-146.00;76.08
21102;BME280;10709;49.006;12.100;2024-01-16T07:07:38;48699.03;;;-146.00;76.29
21102;BME280;10709;49.006;12.100;2024-01-16T07:10:06;48699.03;;;-146.00;76.53
21102;BME280;10709;49.006;12.100;2024-01-16T07:12:44;48679.44;;;-146.00;76.35
21102;BME280;10709;49.006;12.100;2024-01-16T07:15:11;48702.94;;;-146.00;76.58
21102;BME280;10709;49.006;12.100;2024-01-16T07:17:39;48702.94;;;-146.00;75.76
21102;BME280;10709;49.006;12.100;2024-01-16T07:20:07;48683.34;;;-146.00;76.18
21102;BME280;10709;49.006;12.100;2024-01-16T07:22:33;48687.28;;;-146.00;75.71
21102;BME280;10709;49.006;12.100;2024-01-16T07:25:03;48702.94;;;-146.00;75.33
21102;BME280;10709;49.006;12.100;2024-01-16T07:27:30;48697.06;;;-146.00;75.78
21102;BME280;10709;49.006;12.100;2024-01-16T07:29:58;48702.94;;;-146.00;76.10
21102;BME280;10709;49.006;12.100;2024-01-16T07:32:24;48681.41;;;-146.00;75.18
21102;BME280;10709;49.006;12.100;2024-01-16T07:34:53;48691.19;;;-146.00;75.16
21102;BME280;10709;49.006;12.100;2024-01-16T07:37:19;48702.94;;;-146.00;74.97
21102;BME280;10709;49.006;12.100;2024-01-16T07:39:46;48691.19;;;-146.00;75.11
21102;BME280;10709;49.006;12.100;2024-01-16T07:42:13;48693.16;;;-146.00;75.20
21102;BME280;10709;49.006;12.100;2024-01-16T07:44:43;48699.03;;;-146.00;75.61
21102;BME280;10709;49.006;12.100;2024-01-16T07:47:12;48689.22;;;-146.00;75.30
21102;BME280;10709;49.006;12.100;2024-01-16T07:49:39;48675.50;;;-146.00;74.84
21102;BME280;10709;49.006;12.100;2024-01-16T07:52:10;48691.19;;;-146.00;74.74
21102;BME280;10709;49.006;12.100;2024-01-16T07:54:38;48691.19;;;-146.00;75.15
21102;BME280;10709;49.006;12.100;2024-01-16T07:57:07;48681.41;;;-146.00;75.28
21102;BME280;10709;49.006;12.100;2024-01-16T07:59:33;48706.84;;;-146.00;75.13
21102;BME280;10709;49.006;12.100;2024-01-16T08:02:00;48691.19;;;-146.00;74.73
21102;BME280;10709;49.006;12.100;2024-01-16T08:04:26;48708.81;;;-146.00;74.56
21102;BME280;10709;49.006;12.100;2024-01-16T08:06:53;48726.44;;;-146.00;74.95
21102;BME280;10709;49.006;12.100;2024-01-16T08:09:22;48714.69;;;-146.00;74.82
21102;BME280;10709;49.006;12.100;2024-01-16T08:11:49;48679.44;;;-146.00;74.29
21102;BME280;10709;49.006;12.100;2024-01-16T08:14:16;48687.28;;;-146.00;74.52
21102;BME280;10709;49.006;12.100;2024-01-16T08:16:42;48695.09;;;-146.00;74.07
21102;BME280;10709;49.006;12.100;2024-01-16T08:19:10;48699.03;;;-146.00;73.48
21102;BME280;10709;49.006;12.100;2024-01-16T08:21:37;48671.59;;;-146.00;73.12
21102;BME280;10709;49.006;12.100;2024-01-16T08:24:04;48677.47;;;-146.00;73.69
21102;BME280;10709;49.006;12.100;2024-01-16T08:26:31;48671.59;;;-146.00;73.90
21102;BME280;10709;49.006;12.100;2024-01-16T08:28:58;48699.03;;;-146.00;73.99
21102;BME280;10709;49.006;12.100;2024-01-16T08:31:24;48679.44;;;-146.00;74.55
21102;BME280;10709;49.006;12.100;2024-01-16T08:33:51;48683.34;;;-146.00;74.01
21102;BME280;10709;49.006;12.100;2024-01-16T08:36:19;48700.97;;;-146.00;74.39
21102;BME280;10709;49.006;12.100;2024-01-16T08:38:46;48695.09;;;-146.00;74.21
21102;BME280;10709;49.006;12.100;2024-01-16T08:41:14;48685.31;;;-146.00;74.64
21102;BME280;10709;49.006;12.100;2024-01-16T08:43:41;48679.44;;;-146.00;74.59
21102;BME280;10709;49.006;12.100;2024-01-16T08:46:10;48677.47;;;-146.00;74.38
21102;BME280;10709;49.006;12.100;2024-01-16T08:48:37;48683.34;;;-146.00;74.08
21102;BME280;10709;49.006;12.100;2024-01-16T08:51:08;48706.84;;;-146.00;74.35
21102;BME280;10709;49.006;12.100;2024-01-16T08:53:38;48702.94;;;-146.00;73.92
21102;BME280;10709;49.006;12.100;2024-01-16T08:56:05;48702.94;;;-146.00;74.47
21102;BME280;10709;49.006;12.100;2024-01-16T08:58:35;48706.84;;;-146.00;74.31
21102;BME280;10709;49.006;12.100;2024-01-16T09:01:04;48681.41;;;-146.00;74.38
21102;BME280;10709;49.006;12.100;2024-01-16T09:03:32;48704.91;;;-146.00;73.88
21102;BME280;10709;49.006;12.100;2024-01-16T09:05:59;48714.69;;;-146.00;74.51
21102;BME280;10709;49.006;12.100;2024-01-16T09:08:26;48699.03;;;-146.00;74.29
21102;BME280;10709;49.006;12.100;2024-01-16T09:10:53;48683.34;;;-146.00;74.59
21102;BME280;10709;49.006;12.100;2024-01-16T09:13:20;48702.94;;;-146.00;74.22
21102;BME280;10709;49.006;12.100;2024-01-16T09:15:47;48683.34;;;-146.00;73.97
21102;BME280;10709;49.006;12.100;2024-01-16T09:18:16;48699.03;;;-146.00;74.29
21102;BME280;10709;49.006;12.100;2024-01-16T09:20:43;48722.53;;;-146.00;74.27
21102;BME280;10709;49.006;12.100;2024-01-16T09:23:10;48702.94;;;-146.00;74.34
21102;BME280;10709;49.006;12.100;2024-01-16T09:25:37;48683.34;;;-146.00;73.86
21102;BME280;10709;49.006;12.100;2024-01-16T09:28:04;48689.22;;;-146.00;74.54
21102;BME280;10709;49.006;12.100;2024-01-16T09:30:30;48724.50;;;-146.00;73.89
21102;BME280;10709;49.006;12.100;2024-01-16T09:32:57;48683.34;;;-146.00;74.51
21102;BME280;10709;49.006;12.100;2024-01-16T09:35:23;48679.44;;;-146.00;74.27
21102;BME280;10709;49.006;12.100;2024-01-16T09:37:51;48726.44;;;-146.00;74.29
21102;BME280;10709;49.006;12.100;2024-01-16T09:40:18;48695.09;;;-146.00;73.34
21102;BME280;10709;49.006;12.100;2024-01-16T09:42:44;48671.59;;;-146.00;73.92
21102;BME280;10709;49.006;12.100;2024-01-16T09:45:20;48683.34;;;-146.00;73.37
21102;BME280;10709;49.006;12.100;2024-01-16T09:47:50;48693.16;;;-146.00;74.59
21102;BME280;10709;49.006;12.100;2024-01-16T09:50:18;48702.94;;;-146.00;73.55
21102;BME280;10709;49.006;12.100;2024-01-16T09:52:46;48691.19;;;-146.00;74.24
21102;BME280;10709;49.006;12.100;2024-01-16T09:55:16;48671.59;;;-146.00;74.78
21102;BME280;10709;49.006;12.100;2024-01-16T09:57:45;48702.94;;;-146.00;74.55
21102;BME280;10709;49.006;12.100;2024-01-16T10:00:13;48673.56;;;-146.00;73.30
21102;BME280;10709;49.006;12.100;2024-01-16T10:02:41;48710.78;;;-146.00;73.13
21102;BME280;10709;49.006;12.100;2024-01-16T10:05:10;48679.44;;;-146.00;73.67
21102;BME280;10709;49.006;12.100;2024-01-16T10:07:38;48699.03;;;-146.00;74.06
21102;BME280;10709;49.006;12.100;2024-01-16T10:10:06;48700.97;;;-146.00;73.22
21102;BME280;10709;49.006;12.100;2024-01-16T10:12:33;48691.19;;;-146.00;73.21
21102;BME280;10709;49.006;12.100;2024-01-16T10:15:00;48716.66;;;-146.00;73.32
21102;BME280;10709;49.006;12.100;2024-01-16T10:20:04;48710.78;;;-146.00;72.69
21102;BME280;10709;49.006;12.100;2024-01-16T10:22:32;48697.06;;;-146.00;72.71
21102;BME280;10709;49.006;12.100;2024-01-16T10:25:10;48687.28;;;-146.00;72.59
21102;BME280;10709;49.006;12.100;2024-01-16T10:27:40;48677.47;;;-146.00;72.01
21102;BME280;10709;49.006;12.100;2024-01-16T10:30:07;48706.84;;;-146.00;72.50
21102;BME280;10709;49.006;12.100;2024-01-16T10:32:35;48714.69;;;-146.00;72.39
21102;BME280;10709;49.006;12.100;2024-01-16T10:35:12;48706.84;;;-146.00;72.41
21102;BME280;10709;49.006;12.100;2024-01-16T10:37:47;48683.34;;;-146.00;72.10
21102;BME280;10709;49.006;12.100;2024-01-16T10:40:18;48699.03;;;-146.00;72.26
21102;BME280;10709;49.006;12.100;2024-01-16T10:43:00;48691.19;;;-146.00;71.01
21102;BME280;10709;49.006;12.100;2024-01-16T10:45:27;48683.34;;;-146.00;70.28
21102;BME280;10709;49.006;12.100;2024-01-16T10:48:06;48706.84;;;-146.00;71.15
21102;BME280;10709;49.006;12.100;2024-01-16T10:50:36;48695.09;;;-146.00;70.16
21102;BME280;10709;49.006;12.100;2024-01-16T10:53:05;48683.34;;;-146.00;69.87
21102;BME280;10709;49.006;12.100;2024-01-16T10:55:40;48695.09;;;-146.00;70.12
21102;BME280;10709;49.006;12.100;2024-01-16T10:58:10;48671.59;;;-146.00;70.13
21102;BME280;10709;49.006;12.100;2024-01-16T11:00:40;48675.50;;;-146.00;70.40
21102;BME280;10709;49.006;12.100;2024-01-16T11:03:12;48671.59;;;-146.00;70.12
21102;BME280;10709;49.006;12.100;2024-01-16T11:05:47;48659.84;;;-146.00;70.61
21102;BME280;10709;49.006;12.100;2024-01-16T11:08:14;48673.56;;;-146.00;70.83
21102;BME280;10709;49.006;12.100;2024-01-16T11:10:44;48679.44;;;-146.00;70.45
21102;BME280;10709;49.006;12.100;2024-01-16T11:13:11;48667.69;;;-146.00;70.17
21102;BME280;10709;49.006;12.100;2024-01-16T11:15:40;48702.94;;;-146.00;70.07
21102;BME280;10709;49.006;12.100;2024-01-16T11:18:13;48683.34;;;-146.00;69.92
21102;BME280;10709;49.006;12.100;2024-01-16T11:20:41;48675.50;;;-146.00;70.34
21102;BME280;10709;49.006;12.100;2024-01-16T11:23:29;48685.31;;;-146.00;70.26
21102;BME280;10709;49.006;12.100;2024-01-16T11:25:56;48669.63;;;-146.00;70.24
21102;BME280;10709;49.006;12.100;2024-01-16T11:28:27;48679.44;;;-146.00;70.51
21102;BME280;10709;49.006;12.100;2024-01-16T11:31:28;48675.50;;;-146.00;69.89
21102;BME280;10709;49.006;12.100;2024-01-16T11:33:54;48693.16;;;-146.00;70.06
21102;BME280;10709;49.006;12.100;2024-01-16T11:39:21;48683.34;;;-146.00;69.69
21102;BME280;10709;49.006;12.100;2024-01-16T11:41:52;48702.94;;;-146.00;70.45
21102;BME280;10709;49.006;12.100;2024-01-16T11:44:45;48671.59;;;-146.00;70.01
21102;BME280;10709;49.006;12.100;2024-01-16T11:47:18;48675.50;;;-146.00;69.90
21102;BME280;10709;49.006;12.100;2024-01-16T11:50:09;48679.44;;;-146.00;69.76
21102;BME280;10709;49.006;12.100;2024-01-16T12:00:35;48702.94;;;-146.00;68.80
21102;BME280;10709;49.006;12.100;2024-01-16T12:03:02;48687.28;;;-146.00;69.58
21102;BME280;10709;49.006;12.100;2024-01-16T12:05:34;48681.41;;;-146.00;70.16
21102;BME280;10709;49.006;12.100;2024-01-16T12:08:01;48671.59;;;-146.00;69.95
21102;BME280;10709;49.006;12.100;2024-01-16T12:10:29;48695.09;;;-146.00;70.08
21102;BME280;10709;49.006;12.100;2024-01-16T12:12:58;48706.84;;;-146.00;70.24
21102;BME280;10709;49.006;12.100;2024-01-16T12:15:30;48693.16;;;-146.00;69.67
21102;BME280;10709;49.006;12.100;2024-01-16T12:17:59;48687.28;;;-146.00;68.71
21102;BME280;10709;49.006;12.100;2024-01-16T12:20:30;48691.19;;;-146.00;69.22
21102;BME280;10709;49.006;12.100;2024-01-16T12:23:03;48695.09;;;-146.00;69.55
21102;BME280;10709;49.006;12.100;2024-01-16T12:25:31;48683.34;;;-146.00;70.24
21102;BME280;10709;49.006;12.100;2024-01-16T12:28:20;48699.03;;;-146.00;69.72
21102;BME280;10709;49.006;12.100;2024-01-16T12:30:50;48679.44;;;-146.00;68.72
21102;BME280;10709;49.006;12.100;2024-01-16T12:33:22;48689.22;;;-146.00;69.31
21102;BME280;10709;49.006;12.100;2024-01-16T12:36:00;48710.78;;;-146.00;69.33
21102;BME280;10709;49.006;12.100;2024-01-16T12:38:29;48695.09;;;-146.00;70.03
21102;BME280;10709;49.006;12.100;2024-01-16T12:40:57;48699.03;;;-146.00;69.28
21102;BME280;10709;49.006;12.100;2024-01-16T12:43:27;48675.50;;;-146.00;68.58
21102;BME280;10709;49.006;12.100;2024-01-16T12:45:57;48687.28;;;-146.00;67.53
21102;BME280;10709;49.006;12.100;2024-01-16T12:48:25;48702.94;;;-146.00;67.97
21102;BME280;10709;49.006;12.100;2024-01-16T12:50:59;48683.34;;;-146.00;68.15